Aklavik, Canada
Current Conditions -  °F | °C
As of 5:00 AM on Friday 24 Oct 2014 (Local Time) from CYEV Reporting Station
Overcast Overcast  
Wind Chill: 12°   Ceiling: 5200
Heat Index: 12°   Visibility: 10mi
Dew Point: 10°   Wind: 2mph
Humidity: 92%   Direction: 250°WSW
Pressure: 29.82"   Gusts: NA
Location:  68.22°N, 135°W
Report Text: CYEV 241100Z 25002KT 10SM SCT003 OVC052 M11/M12 A2982 RMK SF3SC5 SLP106
Loading
Personal Weather Stations






























Interactive Weather Map
Tropical Storm Tracking
New forecast layout! Learn more

10-Day Weather Forecast

Advertisements
Track Severe Weather on mobile